createdAt,value
2019-03-28T00:00:59.175Z,8.70
2019-03-28T00:03:29.449Z,8.70
2019-03-28T00:05:59.300Z,8.80
2019-03-28T00:08:29.236Z,8.80
2019-03-28T00:11:00.161Z,8.80
2019-03-28T00:13:30.307Z,8.80
2019-03-28T00:16:00.313Z,8.80
2019-03-28T00:18:30.213Z,8.80
2019-03-28T00:21:00.072Z,8.80
2019-03-28T00:23:41.094Z,8.70
2019-03-28T00:26:10.956Z,8.80
2019-03-28T00:28:40.780Z,8.80
2019-03-28T00:31:11.230Z,8.80
2019-03-28T00:33:41.156Z,8.80
2019-03-28T00:36:11.003Z,8.90
2019-03-28T00:38:41.265Z,8.90
2019-03-28T00:41:11.156Z,8.90
2019-03-28T00:43:41.330Z,8.80
2019-03-28T00:46:11.279Z,8.80
2019-03-28T00:48:41.112Z,8.80
2019-03-28T00:51:11.476Z,8.80
2019-03-28T00:53:41.686Z,8.80
2019-03-28T00:56:11.612Z,8.80
2019-03-28T00:58:41.513Z,8.80
2019-03-28T01:01:11.741Z,8.80
2019-03-28T01:03:41.578Z,8.80
2019-03-28T01:06:11.873Z,8.70
2019-03-28T01:08:41.715Z,8.70
2019-03-28T01:11:12.125Z,8.60
2019-03-28T01:13:42.192Z,8.60
2019-03-28T01:16:14.088Z,8.50
2019-03-28T01:18:45.696Z,8.50
2019-03-28T01:21:16.278Z,8.50
2019-03-28T01:23:46.289Z,8.50
2019-03-28T01:26:16.553Z,8.50
2019-03-28T01:28:46.473Z,8.50
2019-03-28T01:31:16.741Z,8.50
2019-03-28T01:33:46.562Z,8.50
2019-03-28T01:36:16.431Z,8.50
2019-03-28T01:38:46.307Z,8.50
2019-03-28T01:41:16.675Z,8.50
2019-03-28T01:43:46.510Z,8.50
2019-03-28T01:46:16.356Z,8.50
2019-03-28T01:48:46.542Z,8.50
2019-03-28T01:51:16.465Z,8.50
2019-03-28T01:53:46.442Z,8.50
2019-03-28T01:56:16.363Z,8.50
2019-03-28T01:58:46.269Z,8.50
2019-03-28T02:01:16.102Z,8.50
2019-03-28T02:03:46.404Z,8.50
2019-03-28T02:06:16.335Z,8.50
2019-03-28T02:08:46.571Z,8.50
2019-03-28T02:11:16.430Z,8.50
2019-03-28T02:13:46.300Z,8.50
2019-03-28T02:16:16.566Z,8.50
2019-03-28T02:18:46.414Z,8.50
2019-03-28T02:21:16.846Z,8.50
2019-03-28T02:23:46.721Z,8.50
2019-03-28T02:26:16.904Z,8.50
2019-03-28T02:28:46.798Z,8.50
2019-03-28T02:31:16.922Z,8.50
2019-03-28T02:33:46.958Z,8.50
2019-03-28T02:36:17.316Z,8.50
2019-03-28T02:38:47.202Z,8.50
2019-03-28T02:41:17.152Z,8.50
2019-03-28T02:43:47.061Z,8.50
2019-03-28T02:46:17.025Z,8.40
2019-03-28T02:48:46.924Z,8.50
2019-03-28T02:51:16.838Z,8.40
2019-03-28T02:53:47.164Z,8.50
2019-03-28T02:56:17.052Z,8.40
2019-03-28T02:58:46.943Z,8.40
2019-03-28T03:01:16.889Z,8.50
2019-03-28T03:03:46.819Z,8.50
2019-03-28T03:06:16.757Z,8.40
2019-03-28T03:08:46.577Z,8.50
2019-03-28T03:11:16.425Z,8.50
2019-03-28T03:13:46.260Z,8.40
2019-03-28T03:16:16.141Z,8.40
2019-03-28T03:18:46.058Z,8.40
2019-03-28T03:21:15.935Z,8.50
2019-03-28T03:23:46.582Z,8.50
2019-03-28T03:26:16.528Z,8.50
2019-03-28T03:28:46.534Z,8.50
2019-03-28T03:31:20.838Z,8.60
2019-03-28T03:33:48.046Z,8.60
2019-03-28T03:36:17.999Z,8.50
2019-03-28T03:38:48.067Z,8.40
2019-03-28T03:41:18.052Z,8.40
2019-03-28T03:43:47.940Z,8.40
2019-03-28T03:46:18.942Z,8.40
2019-03-28T03:48:48.794Z,8.40
2019-03-28T03:51:18.650Z,8.30
2019-03-28T03:53:48.546Z,8.40
2019-03-28T03:56:18.521Z,8.30
2019-03-28T03:58:48.425Z,8.30
2019-03-28T04:01:18.735Z,8.30
2019-03-28T04:03:48.854Z,8.30
2019-03-28T04:06:18.729Z,8.30
2019-03-28T04:08:48.574Z,8.30
2019-03-28T04:11:18.453Z,8.30
2019-03-28T04:13:48.274Z,8.30
2019-03-28T04:16:18.211Z,8.30
2019-03-28T04:18:48.142Z,8.30
2019-03-28T04:21:18.081Z,8.30
2019-03-28T04:23:47.935Z,8.30
2019-03-28T04:26:17.781Z,8.30
2019-03-28T04:28:47.709Z,8.30
2019-03-28T04:31:17.598Z,8.30
2019-03-28T04:33:48.201Z,8.30
2019-03-28T04:36:18.070Z,8.30
2019-03-28T04:38:47.987Z,8.30
2019-03-28T04:41:17.929Z,8.30
2019-03-28T04:43:47.889Z,8.30
2019-03-28T04:46:17.766Z,8.30
2019-03-28T04:48:50.570Z,8.30
2019-03-28T04:51:19.177Z,8.30
2019-03-28T04:53:49.014Z,8.30
2019-03-28T04:56:18.861Z,8.30
2019-03-28T04:58:49.356Z,8.30
2019-03-28T05:01:19.411Z,8.30
2019-03-28T05:03:49.439Z,8.30
2019-03-28T05:06:20.801Z,8.30
2019-03-28T05:08:50.666Z,8.30
2019-03-28T05:11:20.595Z,8.30
2019-03-28T05:13:50.452Z,8.30
2019-03-28T05:16:20.332Z,8.20
2019-03-28T05:18:50.240Z,8.30
2019-03-28T05:21:20.457Z,8.30
2019-03-28T05:23:50.682Z,8.30
2019-03-28T05:26:20.453Z,8.30
2019-03-28T05:28:57.427Z,8.30
2019-03-28T05:31:22.269Z,8.30
2019-03-28T05:33:52.180Z,8.30
2019-03-28T05:36:22.411Z,8.30
2019-03-28T05:38:52.349Z,8.30
2019-03-28T05:41:22.175Z,8.20
2019-03-28T05:43:52.083Z,8.20
2019-03-28T05:46:21.964Z,8.30
2019-03-28T05:48:51.798Z,8.30
2019-03-28T05:51:21.694Z,8.30
2019-03-28T05:53:51.903Z,8.20
2019-03-28T05:56:21.719Z,8.30
2019-03-28T05:58:51.538Z,8.30
2019-03-28T06:01:21.526Z,8.30
2019-03-28T06:03:51.335Z,8.30
2019-03-28T06:06:21.205Z,8.30
2019-03-28T06:08:51.773Z,8.30
2019-03-28T06:11:22.212Z,8.40
2019-03-28T06:13:52.080Z,8.30
2019-03-28T06:16:21.972Z,8.30
2019-03-28T06:18:52.252Z,8.20
2019-03-28T06:21:22.111Z,8.20
2019-03-28T06:23:51.940Z,8.20
2019-03-28T06:26:21.825Z,8.20
2019-03-28T06:28:51.664Z,8.30
2019-03-28T06:31:21.533Z,8.40
2019-03-28T06:33:51.381Z,8.40
2019-03-28T06:36:21.249Z,8.40
2019-03-28T06:38:51.873Z,8.40
2019-03-28T06:41:21.776Z,8.40
2019-03-28T06:43:51.628Z,8.40
2019-03-28T06:46:21.552Z,8.40
2019-03-28T06:48:51.442Z,8.50
2019-03-28T06:51:21.630Z,8.40
2019-03-28T06:53:51.487Z,8.50
2019-03-28T06:56:21.377Z,8.50
2019-03-28T06:58:51.639Z,8.50
2019-03-28T07:01:21.820Z,8.50
2019-03-28T07:03:51.718Z,8.60
2019-03-28T07:06:21.587Z,8.60
2019-03-28T07:08:51.466Z,8.60
2019-03-28T07:11:21.357Z,8.70
2019-03-28T07:13:51.208Z,8.70
2019-03-28T07:16:21.319Z,8.70
2019-03-28T07:18:51.764Z,8.80
2019-03-28T07:21:21.565Z,8.90
2019-03-28T07:23:51.393Z,8.90
2019-03-28T07:26:21.628Z,8.90
2019-03-28T07:28:54.181Z,9.10
2019-03-28T07:31:23.105Z,9.10
2019-03-28T07:33:53.008Z,9.10
2019-03-28T07:36:22.856Z,9.10
2019-03-28T07:38:52.737Z,9.20
2019-03-28T07:41:22.560Z,9.20
2019-03-28T07:43:52.406Z,9.20
2019-03-28T07:46:22.282Z,9.20
2019-03-28T07:48:52.441Z,9.30
2019-03-28T07:51:22.369Z,9.30
2019-03-28T07:53:52.215Z,9.40
2019-03-28T07:56:22.056Z,9.40
2019-03-28T07:58:51.929Z,9.40
2019-03-28T08:01:21.806Z,9.40
2019-03-28T08:03:51.660Z,9.40
2019-03-28T08:06:21.606Z,9.40
2019-03-28T08:08:51.485Z,9.40
2019-03-28T08:11:21.436Z,9.40
2019-03-28T08:13:51.285Z,9.40
2019-03-28T08:16:21.157Z,9.40
2019-03-28T08:18:51.007Z,9.40
2019-03-28T08:21:20.908Z,9.50
2019-03-28T08:23:50.805Z,9.60
2019-03-28T08:26:20.647Z,9.50
2019-03-28T08:28:50.544Z,9.60
2019-03-28T08:31:20.489Z,9.60
2019-03-28T08:33:50.409Z,9.50
2019-03-28T08:36:20.460Z,9.50
2019-03-28T08:38:52.039Z,9.60
2019-03-28T08:41:21.912Z,9.80
2019-03-28T08:43:51.740Z,9.80
2019-03-28T08:46:21.620Z,9.90
2019-03-28T08:48:51.464Z,10.00
2019-03-28T08:51:21.301Z,10.00
2019-03-28T08:53:51.196Z,10.00
2019-03-28T08:56:21.313Z,10.10
2019-03-28T08:58:51.293Z,10.10
2019-03-28T09:01:23.010Z,10.20
2019-03-28T09:03:52.929Z,10.10
2019-03-28T09:06:22.798Z,10.10
2019-03-28T09:08:52.916Z,10.10
2019-03-28T09:11:23.114Z,10.20
2019-03-28T09:13:53.357Z,10.20
2019-03-28T09:16:23.222Z,10.30
2019-03-28T09:18:54.413Z,10.30
2019-03-28T09:21:24.620Z,10.40
2019-03-28T09:23:54.560Z,10.40
2019-03-28T09:26:25.373Z,10.40
2019-03-28T09:28:55.290Z,10.40
2019-03-28T09:31:25.535Z,10.40
2019-03-28T09:33:55.390Z,10.50
2019-03-28T09:36:25.281Z,10.50
2019-03-28T09:38:55.554Z,10.50
2019-03-28T09:41:25.482Z,10.40
2019-03-28T09:43:56.065Z,10.50
2019-03-28T09:46:26.087Z,10.50
2019-03-28T09:48:56.174Z,10.60
2019-03-28T09:51:26.493Z,10.50
2019-03-28T09:53:56.561Z,10.50
2019-03-28T09:56:26.430Z,10.70
2019-03-28T09:58:56.340Z,10.80
2019-03-28T10:01:26.167Z,10.80
2019-03-28T10:03:56.026Z,10.80
2019-03-28T10:06:25.879Z,10.80
2019-03-28T10:08:56.138Z,10.80
2019-03-28T10:11:26.442Z,10.80
2019-03-28T10:13:56.277Z,10.90
2019-03-28T10:16:26.199Z,10.90
2019-03-28T10:18:56.537Z,10.90
2019-03-28T10:21:26.468Z,11.00
2019-03-28T10:23:56.877Z,11.00
2019-03-28T10:26:26.708Z,11.00
2019-03-28T10:28:56.568Z,11.00
2019-03-28T10:31:26.829Z,11.00
2019-03-28T10:33:56.684Z,11.20
2019-03-28T10:36:27.938Z,11.30
2019-03-28T10:38:58.020Z,11.50
2019-03-28T10:41:28.784Z,11.50
2019-03-28T10:43:58.995Z,11.60
2019-03-28T10:46:28.862Z,11.80
2019-03-28T10:48:58.840Z,11.90
2019-03-28T10:51:28.787Z,12.00
2019-03-28T10:53:58.738Z,12.00
2019-03-28T10:56:28.644Z,12.00
2019-03-28T10:58:58.539Z,12.00
2019-03-28T11:01:46.951Z,11.80
2019-03-28T11:04:00.017Z,12.00
2019-03-28T11:06:29.909Z,11.80
2019-03-28T11:09:00.756Z,11.70
2019-03-28T11:11:30.601Z,11.70
2019-03-28T11:14:01.053Z,11.70
2019-03-28T11:16:30.955Z,11.70
2019-03-28T11:19:00.842Z,11.90
2019-03-28T11:21:34.106Z,12.00
2019-03-28T11:24:02.262Z,12.10
2019-03-28T11:26:32.079Z,12.20
2019-03-28T11:29:02.216Z,12.10
2019-03-28T11:31:45.279Z,12.30
2019-03-28T11:34:05.035Z,12.30
2019-03-28T11:36:34.949Z,12.40
2019-03-28T11:39:08.096Z,12.50
2019-03-28T11:41:37.939Z,12.60
2019-03-28T11:44:07.772Z,12.40
2019-03-28T11:46:38.107Z,12.40
2019-03-28T11:49:07.944Z,12.30
2019-03-28T11:51:37.787Z,12.30
2019-03-28T11:54:07.727Z,12.50
2019-03-28T11:56:37.627Z,12.40
2019-03-28T11:59:08.664Z,12.60
2019-03-28T12:01:38.497Z,12.80
2019-03-28T12:04:08.669Z,12.90
2019-03-28T12:06:38.901Z,12.90
2019-03-28T12:09:08.897Z,13.00
2019-03-28T12:11:38.814Z,13.10
2019-03-28T12:14:08.674Z,13.10
2019-03-28T12:16:38.536Z,13.00
2019-03-28T12:19:08.370Z,12.90
2019-03-28T12:21:38.579Z,12.80
2019-03-28T12:24:08.452Z,12.90
2019-03-28T12:26:38.340Z,12.90
2019-03-28T12:29:08.928Z,13.00
2019-03-28T12:31:39.102Z,13.10
2019-03-28T12:34:09.149Z,13.10
2019-03-28T12:36:39.114Z,13.20
2019-03-28T12:39:08.939Z,13.30
2019-03-28T12:41:38.852Z,13.20
2019-03-28T12:44:08.711Z,13.20
2019-03-28T12:46:38.588Z,13.30
2019-03-28T12:49:08.628Z,13.40
2019-03-28T12:51:38.488Z,13.50
2019-03-28T12:54:08.419Z,13.40
2019-03-28T12:56:38.694Z,13.30
2019-03-28T12:59:09.784Z,13.40
2019-03-28T13:01:39.628Z,13.30
2019-03-28T13:04:09.488Z,13.20
2019-03-28T13:06:39.321Z,13.30
2019-03-28T13:09:10.720Z,13.30
2019-03-28T13:11:40.644Z,13.40
2019-03-28T13:14:11.039Z,13.50
2019-03-28T13:16:41.294Z,13.40
2019-03-28T13:19:11.150Z,13.40
2019-03-28T13:21:40.973Z,13.40
2019-03-28T13:24:10.831Z,13.40
2019-03-28T13:26:40.672Z,13.40
2019-03-28T13:29:10.692Z,13.50
2019-03-28T13:31:40.723Z,13.40
2019-03-28T13:34:10.569Z,13.60
2019-03-28T13:36:40.487Z,13.50
2019-03-28T13:39:10.720Z,13.30
2019-03-28T13:41:40.574Z,13.40
2019-03-28T13:44:12.378Z,13.40
2019-03-28T13:46:42.372Z,13.30
2019-03-28T13:49:12.216Z,13.30
2019-03-28T13:51:42.057Z,13.10
2019-03-28T13:54:12.076Z,13.00
2019-03-28T13:56:41.913Z,13.00
2019-03-28T13:59:13.189Z,13.00
2019-03-28T14:01:43.047Z,13.10
2019-03-28T14:04:12.999Z,13.20
2019-03-28T14:06:43.007Z,13.30
2019-03-28T14:09:13.114Z,13.30
2019-03-28T14:11:43.317Z,13.40
2019-03-28T14:14:13.234Z,13.60
2019-03-28T14:16:43.187Z,13.50
2019-03-28T14:19:13.321Z,13.50
2019-03-28T14:21:43.159Z,13.50
2019-03-28T14:24:13.126Z,13.50
2019-03-28T14:26:43.022Z,13.50
2019-03-28T14:29:12.850Z,13.50
2019-03-28T14:31:44.796Z,13.40
2019-03-28T14:34:14.744Z,13.30
2019-03-28T14:36:44.566Z,13.30
2019-03-28T14:39:14.394Z,13.30
2019-03-28T14:41:46.353Z,13.20
2019-03-28T14:44:15.968Z,12.90
2019-03-28T14:46:45.877Z,12.90
2019-03-28T14:49:16.554Z,12.90
2019-03-28T14:51:46.434Z,12.80
2019-03-28T14:54:16.424Z,13.00
2019-03-28T14:56:49.614Z,13.10
2019-03-28T14:59:31.734Z,12.80
2019-03-28T15:01:51.877Z,12.70
2019-03-28T15:04:21.711Z,12.60
2019-03-28T15:06:51.572Z,12.80
2019-03-28T15:09:21.425Z,12.80
2019-03-28T15:11:51.302Z,12.80
2019-03-28T15:14:21.502Z,12.90
2019-03-28T15:16:51.408Z,13.00
2019-03-28T15:19:21.326Z,12.90
2019-03-28T15:21:51.917Z,13.10
2019-03-28T15:24:21.766Z,12.90
2019-03-28T15:26:52.186Z,12.90
2019-03-28T15:29:22.273Z,13.00
2019-03-28T15:31:52.168Z,13.10
2019-03-28T15:34:22.116Z,13.10
2019-03-28T15:36:51.987Z,13.10
2019-03-28T15:39:22.113Z,13.00
2019-03-28T15:41:55.419Z,13.00
2019-03-28T15:44:25.677Z,13.00
2019-03-28T15:46:55.856Z,13.00
2019-03-28T15:49:26.113Z,13.10
2019-03-28T15:51:56.213Z,13.00
2019-03-28T15:54:26.486Z,13.00
2019-03-28T15:56:58.736Z,13.00
2019-03-28T15:59:28.775Z,13.00
2019-03-28T16:01:59.965Z,12.90
2019-03-28T16:04:30.059Z,12.80
2019-03-28T16:07:00.340Z,12.90
2019-03-28T16:09:30.225Z,13.00
2019-03-28T16:12:02.846Z,13.00
2019-03-28T16:14:31.765Z,13.00
2019-03-28T16:17:01.628Z,13.00
2019-03-28T16:19:34.745Z,13.00
2019-03-28T16:22:04.947Z,13.00
2019-03-28T16:24:34.890Z,12.90
2019-03-28T16:27:04.830Z,12.90
2019-03-28T16:29:34.682Z,12.90
2019-03-28T16:32:09.584Z,12.80
2019-03-28T16:34:43.178Z,12.80
2019-03-28T16:37:13.013Z,12.60
2019-03-28T16:39:43.422Z,12.50
2019-03-28T16:42:13.358Z,12.40
2019-03-28T16:44:43.213Z,12.40
2019-03-28T16:47:13.072Z,12.40
2019-03-28T16:49:43.026Z,12.40
2019-03-28T16:52:12.832Z,12.30
2019-03-28T16:54:42.694Z,12.20
2019-03-28T16:57:34.048Z,12.20
2019-03-28T17:00:27.920Z,12.10
2019-03-28T17:03:02.796Z,12.10
2019-03-28T17:05:34.742Z,12.10
2019-03-28T17:08:14.945Z,12.10
2019-03-28T17:10:54.976Z,12.00
2019-03-28T17:13:32.508Z,12.00
2019-03-28T17:16:08.011Z,11.90
2019-03-28T17:18:45.594Z,11.90
2019-03-28T17:21:15.547Z,12.00
2019-03-28T17:23:45.446Z,12.00
2019-03-28T17:26:15.630Z,12.00
2019-03-28T17:28:45.508Z,12.00
2019-03-28T17:31:15.395Z,11.90
2019-03-28T17:33:45.355Z,11.90
2019-03-28T17:36:15.268Z,11.90
2019-03-28T17:38:45.138Z,11.80
2019-03-28T17:41:16.104Z,11.70
2019-03-28T17:43:45.992Z,11.60
2019-03-28T17:46:15.860Z,11.50
2019-03-28T17:48:45.714Z,11.50
2019-03-28T17:51:15.595Z,11.40
2019-03-28T17:53:45.700Z,11.40
2019-03-28T17:56:16.024Z,11.40
2019-03-28T17:58:46.243Z,11.40
2019-03-28T18:01:16.113Z,11.40
2019-03-28T18:03:46.397Z,11.40
2019-03-28T18:06:16.265Z,11.40
2019-03-28T18:08:46.192Z,11.40
2019-03-28T18:11:34.670Z,11.30
2019-03-28T18:14:04.785Z,11.40
2019-03-28T18:16:34.740Z,11.30
2019-03-28T18:19:04.595Z,11.30
2019-03-28T18:21:34.462Z,11.20
2019-03-28T18:24:04.493Z,11.20
2019-03-28T18:26:34.459Z,11.20
2019-03-28T18:29:04.338Z,11.30
2019-03-28T18:31:34.320Z,11.30
2019-03-28T18:34:04.161Z,11.20
2019-03-28T18:36:34.010Z,11.10
2019-03-28T18:39:04.064Z,11.00
2019-03-28T18:41:34.020Z,10.90
2019-03-28T18:44:03.927Z,10.90
2019-03-28T18:46:33.762Z,10.80
2019-03-28T18:49:04.191Z,10.80
2019-03-28T18:51:34.724Z,10.80
2019-03-28T18:54:04.557Z,10.80
2019-03-28T18:56:34.433Z,10.70
2019-03-28T18:59:04.359Z,10.70
2019-03-28T19:01:34.226Z,10.70
2019-03-28T19:04:04.125Z,10.60
2019-03-28T19:06:33.990Z,10.50
2019-03-28T19:09:05.556Z,10.50
2019-03-28T19:11:35.415Z,10.40
2019-03-28T19:14:05.856Z,10.30
2019-03-28T19:16:35.820Z,10.30
2019-03-28T19:19:08.669Z,10.20
2019-03-28T19:21:40.285Z,10.10
2019-03-28T19:24:10.631Z,10.10
2019-03-28T19:26:42.633Z,10.00
2019-03-28T19:29:12.951Z,9.90
2019-03-28T19:31:42.986Z,9.80
2019-03-28T19:34:12.979Z,9.70
2019-03-28T19:36:44.995Z,9.70
2019-03-28T19:39:26.732Z,9.60
2019-03-28T19:41:57.058Z,9.60
2019-03-28T19:44:27.215Z,9.50
2019-03-28T19:46:57.040Z,9.50
2019-03-28T19:49:26.875Z,9.40
2019-03-28T19:51:56.722Z,9.30
2019-03-28T19:54:26.586Z,9.30
2019-03-28T19:56:57.423Z,9.20
2019-03-28T19:59:27.470Z,9.10
2019-03-28T20:01:57.317Z,9.10
2019-03-28T20:04:31.087Z,9.10
2019-03-28T20:07:01.117Z,9.00
2019-03-28T20:09:32.370Z,8.90
2019-03-28T20:12:09.103Z,8.90
2019-03-28T20:14:43.171Z,8.90
2019-03-28T20:17:16.493Z,8.90
2019-03-28T20:19:54.232Z,8.80
2019-03-28T20:22:24.371Z,8.70
2019-03-28T20:25:07.480Z,8.70
2019-03-28T20:27:45.831Z,8.60
2019-03-28T20:30:18.981Z,8.50
2019-03-28T20:32:53.166Z,8.50
2019-03-28T20:35:24.200Z,8.40
2019-03-28T20:37:54.679Z,8.50
2019-03-28T20:40:25.331Z,8.40
2019-03-28T20:42:58.236Z,8.30
2019-03-28T20:45:30.014Z,8.30
2019-03-28T20:48:09.892Z,8.20
2019-03-28T20:50:51.367Z,8.10
2019-03-28T20:53:24.608Z,8.10
2019-03-28T20:55:58.449Z,8.10
2019-03-28T20:58:36.865Z,8.10
2019-03-28T21:01:07.965Z,8.00
2019-03-28T21:03:38.506Z,8.00
2019-03-28T21:06:15.299Z,7.90
2019-03-28T21:08:40.371Z,7.80
2019-03-28T21:11:10.196Z,7.80
2019-03-28T21:13:40.066Z,7.80
2019-03-28T21:16:09.955Z,7.70
2019-03-28T21:18:39.807Z,7.70
2019-03-28T21:21:09.731Z,7.70
2019-03-28T21:23:39.657Z,7.60
2019-03-28T21:26:09.833Z,7.50
2019-03-28T21:28:46.960Z,7.50
2019-03-28T21:31:12.052Z,7.50
2019-03-28T21:33:41.996Z,7.40
2019-03-28T21:36:11.947Z,7.40
2019-03-28T21:38:42.275Z,7.40
2019-03-28T21:41:12.826Z,7.40
2019-03-28T21:43:42.683Z,7.30
2019-03-28T21:46:12.479Z,7.30
2019-03-28T21:48:43.006Z,7.20
2019-03-28T21:51:13.313Z,7.20
2019-03-28T21:53:44.014Z,7.20
2019-03-28T21:56:14.383Z,7.10
2019-03-28T21:58:44.416Z,7.10
2019-03-28T22:01:14.269Z,7.10
2019-03-28T22:03:44.523Z,7.00
2019-03-28T22:06:14.361Z,7.00
2019-03-28T22:08:44.213Z,6.90
2019-03-28T22:11:14.020Z,6.90
2019-03-28T22:13:43.872Z,6.80
2019-03-28T22:16:13.680Z,6.80
2019-03-28T22:18:43.490Z,6.80
2019-03-28T22:21:13.360Z,6.70
2019-03-28T22:23:43.510Z,6.70
2019-03-28T22:26:14.377Z,6.70
2019-03-28T22:28:44.382Z,6.70
2019-03-28T22:31:14.227Z,6.70
2019-03-28T22:33:44.488Z,6.60
2019-03-28T22:36:15.466Z,6.60
2019-03-28T22:38:45.386Z,6.50
2019-03-28T22:41:16.044Z,6.50
2019-03-28T22:43:46.394Z,6.50
2019-03-28T22:46:16.642Z,6.50
2019-03-28T22:48:46.813Z,6.40
2019-03-28T22:51:16.636Z,6.40
2019-03-28T22:53:46.470Z,6.30
2019-03-28T22:56:17.113Z,6.30
2019-03-28T22:58:47.386Z,6.30
2019-03-28T23:01:17.448Z,6.30
2019-03-28T23:03:47.306Z,6.20
2019-03-28T23:06:17.225Z,6.20
2019-03-28T23:08:47.121Z,6.20
2019-03-28T23:11:16.971Z,6.10
2019-03-28T23:13:47.121Z,6.10
2019-03-28T23:16:17.349Z,6.00
2019-03-28T23:18:48.874Z,5.90
2019-03-28T23:21:18.766Z,5.90
2019-03-28T23:23:48.621Z,5.90
2019-03-28T23:26:18.467Z,5.90
2019-03-28T23:28:48.351Z,5.80
2019-03-28T23:31:18.458Z,5.80
2019-03-28T23:33:48.287Z,5.80
2019-03-28T23:36:18.145Z,5.80
2019-03-28T23:38:48.049Z,5.80
2019-03-28T23:41:17.884Z,5.70
2019-03-28T23:43:48.235Z,5.70
2019-03-28T23:46:18.080Z,5.70
2019-03-28T23:48:48.182Z,5.70
2019-03-28T23:51:18.166Z,5.70
2019-03-28T23:53:48.011Z,5.60
2019-03-28T23:56:17.850Z,5.50
2019-03-28T23:58:47.715Z,5.60
